createdAt,value
2018-07-20T00:02:06.450Z,20.02
2018-07-20T00:04:36.428Z,19.96
2018-07-20T00:07:06.451Z,20.45
2018-07-20T00:09:36.380Z,19.83
2018-07-20T00:12:06.462Z,20.16
2018-07-20T00:14:36.578Z,20.90
2018-07-20T00:17:07.694Z,21.17
2018-07-20T00:19:37.698Z,20.78
2018-07-20T00:22:07.884Z,20.81
2018-07-20T00:24:37.911Z,19.90
2018-07-20T00:27:07.934Z,19.38
2018-07-20T00:29:37.888Z,19.15
2018-07-20T00:32:07.999Z,19.23
2018-07-20T00:34:38.095Z,19.25
2018-07-20T00:37:08.169Z,19.30
2018-07-20T00:39:38.197Z,20.02
2018-07-20T00:42:08.230Z,19.44
2018-07-20T00:44:38.423Z,20.18
2018-07-20T00:47:08.590Z,20.29
2018-07-20T00:49:38.702Z,20.49
2018-07-20T00:52:08.852Z,20.20
2018-07-20T00:54:38.960Z,19.61
2018-07-20T00:57:09.061Z,19.12
2018-07-20T00:59:39.042Z,19.71
2018-07-20T01:02:09.184Z,20.25
2018-07-20T01:04:39.293Z,19.56
2018-07-20T01:07:09.491Z,19.60
2018-07-20T01:09:39.590Z,19.51
2018-07-20T01:12:09.808Z,19.64
2018-07-20T01:14:39.844Z,19.82
2018-07-20T01:17:09.849Z,20.16
2018-07-20T01:19:39.978Z,19.80
2018-07-20T01:22:10.218Z,19.11
2018-07-20T01:24:40.242Z,18.47
2018-07-20T01:27:10.256Z,18.75
2018-07-20T01:29:40.305Z,18.76
2018-07-20T01:32:10.693Z,18.47
2018-07-20T01:34:40.729Z,19.26
2018-07-20T01:37:10.839Z,19.78
2018-07-20T01:39:41.007Z,19.60
2018-07-20T01:42:11.125Z,18.95
2018-07-20T01:44:41.271Z,19.27
2018-07-20T01:47:11.393Z,19.41
2018-07-20T01:49:41.449Z,18.95
2018-07-20T01:52:11.604Z,19.35
2018-07-20T01:54:41.682Z,19.32
2018-07-20T01:57:11.835Z,19.70
2018-07-20T01:59:41.854Z,19.66
2018-07-20T02:02:11.993Z,19.12
2018-07-20T02:04:42.114Z,19.31
2018-07-20T02:07:12.082Z,19.13
2018-07-20T02:09:41.922Z,18.91
2018-07-20T02:12:12.047Z,18.99
2018-07-20T02:14:42.029Z,18.76
2018-07-20T02:17:12.169Z,18.40
2018-07-20T02:19:42.146Z,18.67
2018-07-20T02:22:12.234Z,18.61
2018-07-20T02:24:42.283Z,18.50
2018-07-20T02:27:12.182Z,18.93
2018-07-20T02:29:42.014Z,19.04
2018-07-20T02:32:12.162Z,18.96
2018-07-20T02:34:42.190Z,19.07
2018-07-20T02:37:12.322Z,19.38
2018-07-20T02:39:42.382Z,19.33
2018-07-20T02:42:12.245Z,19.17
2018-07-20T02:44:42.095Z,19.11
2018-07-20T02:47:12.266Z,18.03
2018-07-20T02:49:42.285Z,18.08
2018-07-20T02:52:12.354Z,18.03
2018-07-20T02:54:42.293Z,17.86
2018-07-20T02:57:12.195Z,18.30
2018-07-20T02:59:41.919Z,18.47
2018-07-20T03:02:11.611Z,18.57
2018-07-20T03:04:41.331Z,18.46
2018-07-20T03:07:11.215Z,18.84
2018-07-20T03:09:40.958Z,18.46
2018-07-20T03:12:10.809Z,18.16
2018-07-20T03:14:40.961Z,18.34
2018-07-20T03:17:10.685Z,17.85
2018-07-20T03:19:40.332Z,18.45
2018-07-20T03:22:10.114Z,18.67
2018-07-20T03:24:39.793Z,18.42
2018-07-20T03:27:09.474Z,18.28
2018-07-20T03:29:39.158Z,17.55
2018-07-20T03:32:08.821Z,17.27
2018-07-20T03:34:38.477Z,17.20
2018-07-20T03:37:08.240Z,17.75
2018-07-20T03:39:37.897Z,17.90
2018-07-20T03:42:07.681Z,17.97
2018-07-20T03:44:37.389Z,18.12
2018-07-20T03:47:07.070Z,18.19
2018-07-20T03:49:36.809Z,18.18
2018-07-20T03:52:06.718Z,18.29
2018-07-20T03:54:36.357Z,18.18
2018-07-20T03:57:06.174Z,17.89
2018-07-20T03:59:35.830Z,18.38
2018-07-20T04:02:05.597Z,17.39
2018-07-20T04:04:35.252Z,17.14
2018-07-20T04:07:04.917Z,17.02
2018-07-20T04:09:34.659Z,16.59
2018-07-20T04:12:04.697Z,16.84
2018-07-20T04:14:34.370Z,16.80
2018-07-20T04:17:04.185Z,17.38
2018-07-20T04:19:33.873Z,17.50
2018-07-20T04:22:04.062Z,17.33
2018-07-20T04:24:33.730Z,17.21
2018-07-20T04:27:03.437Z,17.60
2018-07-20T04:29:33.106Z,17.69
2018-07-20T04:32:02.815Z,17.95
2018-07-20T04:34:32.598Z,18.18
2018-07-20T04:37:02.263Z,17.55
2018-07-20T04:39:31.917Z,17.44
2018-07-20T04:42:01.594Z,17.91
2018-07-20T04:44:31.248Z,17.87
2018-07-20T04:47:00.936Z,17.80
2018-07-20T04:49:30.661Z,17.95
2018-07-20T04:52:00.329Z,18.03
2018-07-20T04:54:29.973Z,18.06
2018-07-20T04:56:59.605Z,17.85
2018-07-20T04:59:29.265Z,18.20
2018-07-20T05:01:58.898Z,18.34
2018-07-20T05:04:28.567Z,18.39
2018-07-20T05:06:58.254Z,18.50
2018-07-20T05:09:27.938Z,18.43
2018-07-20T05:11:57.585Z,18.29
2018-07-20T05:14:27.314Z,18.24
2018-07-20T05:16:56.937Z,18.40
2018-07-20T05:19:26.669Z,18.36
2018-07-20T05:21:56.567Z,18.15
2018-07-20T05:24:26.197Z,18.09
2018-07-20T05:26:55.825Z,18.11
2018-07-20T05:29:25.433Z,18.26
2018-07-20T05:31:55.097Z,18.50
2018-07-20T05:34:24.773Z,18.60
2018-07-20T05:36:54.385Z,18.64
2018-07-20T05:39:24.019Z,18.28
2018-07-20T05:41:53.685Z,18.15
2018-07-20T05:44:23.521Z,18.20
2018-07-20T05:46:53.215Z,18.46
2018-07-20T05:49:22.859Z,18.59
2018-07-20T05:51:52.501Z,18.51
2018-07-20T05:54:22.131Z,18.38
2018-07-20T05:56:51.729Z,18.44
2018-07-20T05:59:21.390Z,18.66
2018-07-20T06:01:51.085Z,18.75
2018-07-20T06:04:20.722Z,18.82
2018-07-20T06:06:50.361Z,18.82
2018-07-20T06:09:20.301Z,18.88
2018-07-20T06:11:49.948Z,18.93
2018-07-20T06:14:19.598Z,18.77
2018-07-20T06:16:49.249Z,18.75
2018-07-20T06:19:18.881Z,18.81
2018-07-20T06:21:48.583Z,18.95
2018-07-20T06:24:18.202Z,19.01
2018-07-20T06:26:47.837Z,19.01
2018-07-20T06:29:17.453Z,19.06
2018-07-20T06:31:47.062Z,19.11
2018-07-20T06:34:16.660Z,19.08
2018-07-20T06:36:46.299Z,19.08
2018-07-20T06:39:15.999Z,19.12
2018-07-20T06:41:45.743Z,19.23
2018-07-20T06:44:15.357Z,19.22
2018-07-20T06:46:44.961Z,19.26
2018-07-20T06:49:14.571Z,19.33
2018-07-20T06:51:44.159Z,19.39
2018-07-20T06:54:13.745Z,19.43
2018-07-20T06:56:43.310Z,19.46
2018-07-20T06:59:12.905Z,19.48
2018-07-20T07:01:42.578Z,19.54
2018-07-20T07:04:12.654Z,19.51
2018-07-20T07:06:42.253Z,19.54
2018-07-20T07:09:11.897Z,19.50
2018-07-20T07:11:41.545Z,19.55
2018-07-20T07:14:11.178Z,19.67
2018-07-20T07:16:40.819Z,19.66
2018-07-20T07:19:10.565Z,19.73
2018-07-20T07:21:40.162Z,19.73
2018-07-20T07:24:09.777Z,19.72
2018-07-20T07:26:39.381Z,19.82
2018-07-20T07:29:08.998Z,19.84
2018-07-20T07:31:38.593Z,20.06
2018-07-20T07:34:08.217Z,20.03
2018-07-20T07:36:37.821Z,20.08
2018-07-20T07:39:11.253Z,20.16
2018-07-20T07:41:40.896Z,20.28
2018-07-20T07:44:10.542Z,20.29
2018-07-20T07:46:40.158Z,20.28
2018-07-20T07:49:09.772Z,20.38
2018-07-20T07:51:39.375Z,20.69
2018-07-20T07:54:09.030Z,20.59
2018-07-20T07:56:38.627Z,20.67
2018-07-20T07:59:08.212Z,20.65
2018-07-20T08:01:37.981Z,20.76
2018-07-20T08:04:07.615Z,20.75
2018-07-20T08:06:37.321Z,20.77
2018-07-20T08:09:11.251Z,21.15
2018-07-20T08:11:41.178Z,21.38
2018-07-20T08:14:12.465Z,21.49
2018-07-20T08:16:42.057Z,21.77
2018-07-20T08:19:11.894Z,21.38
2018-07-20T08:21:41.953Z,21.18
2018-07-20T08:24:11.583Z,21.28
2018-07-20T08:26:41.193Z,21.59
2018-07-20T08:29:11.508Z,21.54
2018-07-20T08:31:41.169Z,22.04
2018-07-20T08:34:11.613Z,21.78
2018-07-20T08:36:41.241Z,21.79
2018-07-20T08:39:11.292Z,21.99
2018-07-20T08:41:40.967Z,22.17
2018-07-20T08:44:10.561Z,22.43
2018-07-20T08:46:40.285Z,22.22
2018-07-20T08:49:09.869Z,22.20
2018-07-20T08:51:39.465Z,22.73
2018-07-20T08:54:09.163Z,22.75
2018-07-20T08:56:38.769Z,22.71
2018-07-20T08:59:08.527Z,23.04
2018-07-20T09:01:38.033Z,22.92
2018-07-20T09:04:07.848Z,22.84
2018-07-20T09:06:37.528Z,22.99
2018-07-20T09:09:08.909Z,23.32
2018-07-20T09:11:38.597Z,23.34
2018-07-20T09:14:08.313Z,23.40
2018-07-20T09:16:37.926Z,23.60
2018-07-20T09:19:07.641Z,23.67
2018-07-20T09:21:37.222Z,23.48
2018-07-20T09:24:06.861Z,23.44
2018-07-20T09:26:36.451Z,23.87
2018-07-20T09:29:06.082Z,23.69
2018-07-20T09:31:35.669Z,23.86
2018-07-20T09:34:05.388Z,23.91
2018-07-20T09:36:35.055Z,23.92
2018-07-20T09:39:07.002Z,24.18
2018-07-20T09:41:36.758Z,24.19
2018-07-20T09:44:06.390Z,24.32
2018-07-20T09:46:36.026Z,24.61
2018-07-20T09:49:05.822Z,24.69
2018-07-20T09:51:35.425Z,24.68
2018-07-20T09:54:05.046Z,24.67
2018-07-20T09:56:34.665Z,24.97
2018-07-20T09:59:04.313Z,25.01
2018-07-20T10:01:33.970Z,24.97
2018-07-20T10:04:03.585Z,25.35
2018-07-20T10:06:33.221Z,25.24
2018-07-20T10:09:02.898Z,25.35
2018-07-20T10:11:32.537Z,25.21
2018-07-20T10:14:02.121Z,25.34
2018-07-20T10:16:31.717Z,25.30
2018-07-20T10:19:01.463Z,25.60
2018-07-20T10:21:31.528Z,25.89
2018-07-20T10:24:01.146Z,25.69
2018-07-20T10:26:30.795Z,25.75
2018-07-20T10:29:01.062Z,26.06
2018-07-20T10:31:30.702Z,25.98
2018-07-20T10:34:00.371Z,26.11
2018-07-20T10:36:29.994Z,26.07
2018-07-20T10:38:59.634Z,26.12
2018-07-20T10:41:29.233Z,26.43
2018-07-20T10:43:59.956Z,26.51
2018-07-20T10:46:35.549Z,26.68
2018-07-20T10:49:05.415Z,26.83
2018-07-20T10:51:35.039Z,26.73
2018-07-20T10:54:05.770Z,26.69
2018-07-20T10:56:52.289Z,26.85
2018-07-20T10:59:21.909Z,27.11
2018-07-20T11:01:51.933Z,27.22
2018-07-20T11:04:21.578Z,27.01
2018-07-20T11:06:51.301Z,26.76
2018-07-20T11:09:20.922Z,26.79
2018-07-20T11:11:50.577Z,26.60
2018-07-20T11:14:20.273Z,26.74
2018-07-20T11:16:50.013Z,27.21
2018-07-20T11:19:19.629Z,27.43
2018-07-20T11:21:49.293Z,27.39
2018-07-20T11:24:18.951Z,27.58
2018-07-20T11:26:48.563Z,27.43
2018-07-20T11:29:18.201Z,27.47
2018-07-20T11:31:47.885Z,27.68
2018-07-20T11:34:17.550Z,27.66
2018-07-20T11:36:47.158Z,27.44
2018-07-20T11:39:16.826Z,27.67
2018-07-20T11:41:46.480Z,27.94
2018-07-20T11:44:16.065Z,27.90
2018-07-20T11:46:45.674Z,28.25
2018-07-20T11:49:15.277Z,28.03
2018-07-20T11:51:44.902Z,27.76
2018-07-20T11:54:14.561Z,28.02
2018-07-20T11:56:44.190Z,27.91
2018-07-20T11:59:13.773Z,28.11
2018-07-20T12:01:43.423Z,28.09
2018-07-20T12:04:13.021Z,28.20
2018-07-20T12:06:42.662Z,28.26
2018-07-20T12:09:12.962Z,28.39
2018-07-20T12:11:42.905Z,28.20
2018-07-20T12:14:12.577Z,28.20
2018-07-20T12:16:42.193Z,28.28
2018-07-20T12:19:11.830Z,28.02
2018-07-20T12:21:41.444Z,28.02
2018-07-20T12:24:11.175Z,28.06
2018-07-20T12:26:40.846Z,28.30
2018-07-20T12:29:10.638Z,28.25
2018-07-20T12:31:40.288Z,28.59
2018-07-20T12:34:09.911Z,28.52
2018-07-20T12:36:45.083Z,28.73
2018-07-20T12:39:14.705Z,28.79
2018-07-20T12:41:44.330Z,28.81
2018-07-20T12:44:13.977Z,28.95
2018-07-20T12:46:43.715Z,29.04
2018-07-20T12:49:13.329Z,29.27
2018-07-20T12:51:42.984Z,29.32
2018-07-20T12:54:12.655Z,29.20
2018-07-20T12:56:42.310Z,29.23
2018-07-20T12:59:11.998Z,29.20
2018-07-20T13:01:41.628Z,29.24
2018-07-20T13:04:11.302Z,29.12
2018-07-20T13:06:41.009Z,29.01
2018-07-20T13:09:12.566Z,29.25
2018-07-20T13:11:42.771Z,29.53
2018-07-20T13:14:13.062Z,29.75
2018-07-20T13:16:43.167Z,29.68
2018-07-20T13:19:12.849Z,29.69
2018-07-20T13:21:42.537Z,29.23
2018-07-20T13:24:12.179Z,28.92
2018-07-20T13:26:41.831Z,28.97
2018-07-20T13:29:11.488Z,29.19
2018-07-20T13:31:41.166Z,29.25
2018-07-20T13:34:10.771Z,29.44
2018-07-20T13:36:40.462Z,29.54
2018-07-20T13:39:11.765Z,29.73
2018-07-20T13:41:42.042Z,29.60
2018-07-20T13:44:11.705Z,29.28
2018-07-20T13:46:41.367Z,29.82
2018-07-20T13:49:11.066Z,29.46
2018-07-20T13:51:40.732Z,29.56
2018-07-20T13:54:10.402Z,29.81
2018-07-20T13:56:40.073Z,29.87
2018-07-20T13:59:09.932Z,30.01
2018-07-20T14:01:39.664Z,30.01
2018-07-20T14:04:09.345Z,30.06
2018-07-20T14:06:38.958Z,30.08
2018-07-20T14:09:10.337Z,30.12
2018-07-20T14:11:40.236Z,29.76
2018-07-20T14:14:10.396Z,29.85
2018-07-20T14:16:40.099Z,29.92
2018-07-20T14:19:09.706Z,30.04
2018-07-20T14:21:39.402Z,30.24
2018-07-20T14:24:09.051Z,29.90
2018-07-20T14:26:39.764Z,29.63
2018-07-20T14:29:09.503Z,29.60
2018-07-20T14:31:39.324Z,29.71
2018-07-20T14:34:08.873Z,29.54
2018-07-20T14:36:38.493Z,29.88
2018-07-20T14:39:12.041Z,29.95
2018-07-20T14:41:42.219Z,29.51
2018-07-20T14:44:11.906Z,29.66
2018-07-20T14:46:41.587Z,30.02
2018-07-20T14:49:11.618Z,29.88
2018-07-20T14:51:41.422Z,29.92
2018-07-20T14:54:11.229Z,30.08
2018-07-20T14:56:40.917Z,29.84
2018-07-20T14:59:10.826Z,29.93
2018-07-20T15:01:40.591Z,29.88
2018-07-20T15:04:10.438Z,29.81
2018-07-20T15:06:40.394Z,29.78
2018-07-20T15:09:12.249Z,29.85
2018-07-20T15:11:41.939Z,29.80
2018-07-20T15:14:11.818Z,29.78
2018-07-20T15:16:41.532Z,30.03
2018-07-20T15:19:11.230Z,30.06
2018-07-20T15:21:40.945Z,29.80
2018-07-20T15:24:10.569Z,30.05
2018-07-20T15:26:40.205Z,30.28
2018-07-20T15:29:09.865Z,30.45
2018-07-20T15:31:39.555Z,30.57
2018-07-20T15:34:09.185Z,30.64
2018-07-20T15:36:38.846Z,30.59
2018-07-20T15:39:11.024Z,30.84
2018-07-20T15:41:40.886Z,30.56
2018-07-20T15:44:10.577Z,30.03
2018-07-20T15:46:40.295Z,30.56
2018-07-20T15:49:09.958Z,30.83
2018-07-20T15:53:35.205Z,30.87
2018-07-20T15:54:09.315Z,30.84
2018-07-20T15:56:38.953Z,30.38
2018-07-20T15:59:08.751Z,30.57
2018-07-20T16:01:38.584Z,30.26
2018-07-20T16:04:08.278Z,30.31
2018-07-20T16:06:37.921Z,30.46
2018-07-20T16:09:10.997Z,30.13
2018-07-20T16:11:40.697Z,30.23
2018-07-20T16:14:10.333Z,30.11
2018-07-20T16:16:39.973Z,30.44
2018-07-20T16:19:09.580Z,30.02
2018-07-20T16:21:39.266Z,30.19
2018-07-20T16:24:09.129Z,30.56
2018-07-20T16:26:38.715Z,30.55
2018-07-20T16:29:08.357Z,30.41
2018-07-20T16:31:37.973Z,30.45
2018-07-20T16:34:07.955Z,30.24
2018-07-20T16:36:37.585Z,30.45
2018-07-20T16:39:09.881Z,30.38
2018-07-20T16:41:39.509Z,30.22
2018-07-20T16:44:09.377Z,30.01
2018-07-20T16:46:39.147Z,30.54
2018-07-20T16:49:09.017Z,30.71
2018-07-20T16:51:39.026Z,30.66
2018-07-20T16:54:08.861Z,30.60
2018-07-20T16:56:38.462Z,30.47
2018-07-20T16:59:08.180Z,30.50
2018-07-20T17:01:37.889Z,30.22
2018-07-20T17:04:07.513Z,30.30
2018-07-20T17:06:37.117Z,30.08
2018-07-20T17:09:10.325Z,30.01
2018-07-20T17:11:40.461Z,30.00
2018-07-20T17:14:10.125Z,30.17
2018-07-20T17:16:39.753Z,30.05
2018-07-20T17:19:09.357Z,30.11
2018-07-20T17:21:39.037Z,30.06
2018-07-20T17:24:08.614Z,29.94
2018-07-20T17:26:38.248Z,29.98
2018-07-20T17:29:07.847Z,29.44
2018-07-20T17:31:37.493Z,29.34
2018-07-20T17:34:07.106Z,29.42
2018-07-20T17:36:36.798Z,29.41
2018-07-20T17:39:10.379Z,28.99
2018-07-20T17:41:39.968Z,29.32
2018-07-20T17:44:10.017Z,29.32
2018-07-20T17:46:39.893Z,29.47
2018-07-20T17:49:09.557Z,29.14
2018-07-20T17:51:39.197Z,29.16
2018-07-20T17:54:08.816Z,29.19
2018-07-20T17:56:38.444Z,29.12
2018-07-20T17:59:08.043Z,28.91
2018-07-20T18:01:50.510Z,28.97
2018-07-20T18:04:20.114Z,28.68
2018-07-20T18:06:49.737Z,28.69
2018-07-20T18:09:19.380Z,28.85
2018-07-20T18:11:49.025Z,28.75
2018-07-20T18:14:18.680Z,28.72
2018-07-20T18:16:48.278Z,28.92
2018-07-20T18:19:19.997Z,28.86
2018-07-20T18:21:49.620Z,28.59
2018-07-20T18:24:19.563Z,28.60
2018-07-20T18:26:49.231Z,28.68
2018-07-20T18:29:18.811Z,28.25
2018-07-20T18:31:48.458Z,28.32
2018-07-20T18:34:18.063Z,28.46
2018-07-20T18:36:47.704Z,28.01
2018-07-20T18:39:17.381Z,28.03
2018-07-20T18:41:47.293Z,28.06
2018-07-20T18:44:16.902Z,28.04
2018-07-20T18:46:46.557Z,27.73
2018-07-20T18:49:16.166Z,27.75
2018-07-20T18:51:45.785Z,27.67
2018-07-20T18:54:15.409Z,27.54
2018-07-20T18:56:45.021Z,27.55
2018-07-20T18:59:14.645Z,27.81
2018-07-20T19:01:44.283Z,27.63
2018-07-20T19:04:14.973Z,27.60
2018-07-20T19:06:44.565Z,27.11
2018-07-20T19:09:14.151Z,27.21
2018-07-20T19:11:43.794Z,27.25
2018-07-20T19:14:13.629Z,27.41
2018-07-20T19:16:43.290Z,26.87
2018-07-20T19:19:12.938Z,27.29
2018-07-20T19:21:42.537Z,27.24
2018-07-20T19:24:12.145Z,27.17
2018-07-20T19:26:41.787Z,27.28
2018-07-20T19:29:11.453Z,27.28
2018-07-20T19:31:41.107Z,27.00
2018-07-20T19:34:10.740Z,27.03
2018-07-20T19:36:40.321Z,26.77
2018-07-20T19:39:11.167Z,26.73
2018-07-20T19:41:41.025Z,26.88
2018-07-20T19:44:10.621Z,26.91
2018-07-20T19:46:40.244Z,27.03
2018-07-20T19:49:09.936Z,26.62
2018-07-20T19:51:39.615Z,26.77
2018-07-20T19:54:09.254Z,26.66
2018-07-20T19:56:38.921Z,27.12
2018-07-20T19:59:08.559Z,27.03
2018-07-20T20:01:38.186Z,26.60
2018-07-20T20:04:07.809Z,26.84
2018-07-20T20:06:37.442Z,27.00
2018-07-20T20:09:16.610Z,26.78
2018-07-20T20:11:49.889Z,26.43
2018-07-20T20:14:19.517Z,26.55
2018-07-20T20:16:59.249Z,26.95
2018-07-20T20:19:33.761Z,26.58
2018-07-20T20:22:03.501Z,26.79
2018-07-20T20:24:33.164Z,27.09
2018-07-20T20:27:02.774Z,27.17
2018-07-20T20:29:32.467Z,26.56
2018-07-20T20:32:02.033Z,26.45
2018-07-20T20:34:31.673Z,26.43
2018-07-20T20:37:01.313Z,26.06
2018-07-20T20:39:31.001Z,25.80
2018-07-20T20:42:00.621Z,25.96
2018-07-20T20:44:30.284Z,25.68
2018-07-20T20:47:00.048Z,25.67
2018-07-20T20:49:29.666Z,24.87
2018-07-20T20:52:00.359Z,25.37
2018-07-20T20:54:29.974Z,25.01
2018-07-20T20:56:59.573Z,24.95
2018-07-20T20:59:29.199Z,24.92
2018-07-20T21:01:58.935Z,25.12
2018-07-20T21:04:28.566Z,25.11
2018-07-20T21:06:58.309Z,24.64
2018-07-20T21:09:27.937Z,24.82
2018-07-20T21:11:57.588Z,25.22
2018-07-20T21:14:27.215Z,25.01
2018-07-20T21:16:56.805Z,25.06
2018-07-20T21:19:26.452Z,24.90
2018-07-20T21:21:56.077Z,24.69
2018-07-20T21:24:25.681Z,24.99
2018-07-20T21:26:55.322Z,25.51
2018-07-20T21:29:24.938Z,24.83
2018-07-20T21:31:54.582Z,24.63
2018-07-20T21:34:24.195Z,24.69
2018-07-20T21:36:53.826Z,24.98
2018-07-20T21:39:23.455Z,25.37
2018-07-20T21:41:53.088Z,25.65
2018-07-20T21:44:22.733Z,25.73
2018-07-20T21:46:52.385Z,25.78
2018-07-20T21:49:21.993Z,25.76
2018-07-20T21:51:51.714Z,25.64
2018-07-20T21:54:21.358Z,24.56
2018-07-20T21:56:50.981Z,24.21
2018-07-20T21:59:20.654Z,25.03
2018-07-20T22:01:50.410Z,25.45
2018-07-20T22:04:20.054Z,25.40
2018-07-20T22:06:49.692Z,24.92
2018-07-20T22:09:19.279Z,24.21
2018-07-20T22:11:48.898Z,24.04
2018-07-20T22:14:20.581Z,24.10
2018-07-20T22:16:50.225Z,23.88
2018-07-20T22:19:19.845Z,24.07
2018-07-20T22:21:49.448Z,24.25
2018-07-20T22:24:19.094Z,23.99
2018-07-20T22:26:48.722Z,23.60
2018-07-20T22:29:18.378Z,23.73
2018-07-20T22:31:48.021Z,23.82
2018-07-20T22:34:17.671Z,23.98
2018-07-20T22:36:47.245Z,24.01
2018-07-20T22:39:16.846Z,24.31
2018-07-20T22:41:46.413Z,24.52
2018-07-20T22:44:16.110Z,24.51
2018-07-20T22:46:45.702Z,24.60
2018-07-20T22:49:15.305Z,24.59
2018-07-20T22:51:44.918Z,24.60
2018-07-20T22:54:14.797Z,24.21
2018-07-20T22:56:44.445Z,23.78
2018-07-20T22:59:14.094Z,23.96
2018-07-20T23:01:43.722Z,23.92
2018-07-20T23:04:13.338Z,23.94
2018-07-20T23:06:48.445Z,24.25
2018-07-20T23:09:18.271Z,24.58
2018-07-20T23:11:49.906Z,24.60
2018-07-20T23:14:19.648Z,24.67
2018-07-20T23:16:54.437Z,24.69
2018-07-20T23:19:26.141Z,24.54
2018-07-20T23:21:59.798Z,24.50
2018-07-20T23:24:29.441Z,24.62
2018-07-20T23:26:59.281Z,24.35
2018-07-20T23:29:28.917Z,23.91
2018-07-20T23:32:11.853Z,24.12
2018-07-20T23:34:41.475Z,24.26
2018-07-20T23:37:11.077Z,24.45
2018-07-20T23:39:44.835Z,24.55
2018-07-20T23:42:15.475Z,24.59
2018-07-20T23:44:45.333Z,24.43
2018-07-20T23:47:18.521Z,24.52
2018-07-20T23:49:48.205Z,24.20
2018-07-20T23:52:17.793Z,23.45
2018-07-20T23:54:47.400Z,23.77
2018-07-20T23:57:17.001Z,23.78
2018-07-20T23:59:46.642Z,24.16
